Portada
METAR-TAF:

METAR-TAF

Aeropuertos :

Aeropuerto Internacional Hato

Curazao, Antillas Neerlandesas

latitud: 12-12N, longitud: 068-58W, altitud: 9 m

Observación

El informe se hizo hace 22 minutos, a las 01:00 UTC
Viento 14 kt del este
Temperatura 28°C
Humedad 79%
Presión 1013 hPa
Visibilidad 10 km o más

METAR: TNCC 200100Z AUTO 09014KT 9999 NSC 28/24 Q1013 NOSIG

Hora: 21:22 (01:22 UTC)

Pronóstico

El informe se hizo hace 3 horas y 37 minutos, a las 21:45 UTC
Pronóstico válido del 20 a las 00 UTC al 20 a las 24 UTC
Viento 13 kt del este
Visibilidad 10 km o más
Escasas nubes a una altura de 1800 ft
Probabilidad 30% :
Temporalmente
del 20 a las 00 UTC al 20 a las 04 UTC
Cielo nuboso a una altura de 1500 ft
Evolucionando progresivamente
del 20 a las 11 UTC al 20 a las 13 UTC
Viento 14 kt del este-sureste con ráfagas de 24 kt

TAF: TNCC 192145Z 2000/2024 09013KT 9999 FEW018 PROB30 TEMPO 2000/2004 BKN015 BECMG 2011/2013 11014G24KT

Observaciones y pronósticos meteorológicos de más de 4000 aeropuertos (mensajes METAR y TAF).

Los puntos amarillos y rojos representan las estaciones disponibles.

Ponga el ratón en el punto deseado para ver el nombre de la estación.

Haga clic para ver las observaciones y los pronósticos meteorológicos.

Para cambiar el mapa : haga clic en los botones verdes con una cruz de color negro para hacer un zoom, en el botón verde con un guión para alejar o en las flechas verdes para mapas adyacentes.


METAR-TAF: